Bass, Arkansas
Current Conditions -  °F | °C
As of 7:00 AM on Friday 19 Dec 2014 (Local Time) from KHRO Reporting Station
Haze Haze  
Wind Chill: 33°   Ceiling: 200
Heat Index: 37°   Visibility: 3mi
Dew Point: 36°   Wind: 5mph
Humidity: 96%   Direction: 100°E
Pressure: 30.21"   Gusts: NA
Location:  35.9°N, 93°W
Report Text: KHRO 191300Z AUTO 10004KT 3SM BR OVC002 03/02 A3021 RMK AO2 T00280022
Loading
Personal Weather Stations






























Interactive Weather Map New forecast layout! Learn more

10-Day Weather Forecast

Advertisements
Track Severe Weather on mobile